sensor_id;sensor_type;location;lat;lon;timestamp;temperature;humidity
7307;DHT22;3694;48.732;9.248;2022-07-29T00:01:32;17.50;99.90
7307;DHT22;3694;48.732;9.248;2022-07-29T00:03:57;17.50;99.90
7307;DHT22;3694;48.732;9.248;2022-07-29T00:06:23;17.50;99.90
7307;DHT22;3694;48.732;9.248;2022-07-29T00:08:48;17.60;99.90
7307;DHT22;3694;48.732;9.248;2022-07-29T00:11:14;17.50;99.90
7307;DHT22;3694;48.732;9.248;2022-07-29T00:13:39;17.50;99.90
7307;DHT22;3694;48.732;9.248;2022-07-29T00:16:05;17.60;99.90
7307;DHT22;3694;48.732;9.248;2022-07-29T00:18:31;17.60;99.90
7307;DHT22;3694;48.732;9.248;2022-07-29T00:20:56;17.70;99.90
7307;DHT22;3694;48.732;9.248;2022-07-29T00:23:22;17.50;99.90
7307;DHT22;3694;48.732;9.248;2022-07-29T00:25:47;17.50;99.90
7307;DHT22;3694;48.732;9.248;2022-07-29T00:28:13;17.50;99.90
7307;DHT22;3694;48.732;9.248;2022-07-29T00:30:38;17.50;99.90
7307;DHT22;3694;48.732;9.248;2022-07-29T00:33:05;17.40;99.90
7307;DHT22;3694;48.732;9.248;2022-07-29T00:35:30;17.30;99.90
7307;DHT22;3694;48.732;9.248;2022-07-29T00:38:13;17.20;99.90
7307;DHT22;3694;48.732;9.248;2022-07-29T00:40:39;17.20;99.90
7307;DHT22;3694;48.732;9.248;2022-07-29T00:43:05;17.10;99.90
7307;DHT22;3694;48.732;9.248;2022-07-29T00:45:31;17.10;99.90
7307;DHT22;3694;48.732;9.248;2022-07-29T00:47:56;17.10;99.90
7307;DHT22;3694;48.732;9.248;2022-07-29T00:50:23;17.10;99.90
7307;DHT22;3694;48.732;9.248;2022-07-29T00:52:49;17.10;99.90
7307;DHT22;3694;48.732;9.248;2022-07-29T00:55:16;17.10;99.90
7307;DHT22;3694;48.732;9.248;2022-07-29T00:57:43;17.20;99.90
7307;DHT22;3694;48.732;9.248;2022-07-29T01:00:12;17.20;99.90
7307;DHT22;3694;48.732;9.248;2022-07-29T01:02:38;17.10;99.90
7307;DHT22;3694;48.732;9.248;2022-07-29T01:05:04;17.10;99.90
7307;DHT22;3694;48.732;9.248;2022-07-29T01:07:32;17.10;99.90
7307;DHT22;3694;48.732;9.248;2022-07-29T01:09:59;17.10;99.90
7307;DHT22;3694;48.732;9.248;2022-07-29T01:12:26;17.00;99.90
7307;DHT22;3694;48.732;9.248;2022-07-29T01:14:54;17.00;99.90
7307;DHT22;3694;48.732;9.248;2022-07-29T01:17:25;17.00;99.90
7307;DHT22;3694;48.732;9.248;2022-07-29T01:20:02;16.90;99.90
7307;DHT22;3694;48.732;9.248;2022-07-29T01:22:54;16.90;99.90
7307;DHT22;3694;48.732;9.248;2022-07-29T01:31:47;16.90;99.90
7307;DHT22;3694;48.732;9.248;2022-07-29T01:34:21;17.00;99.90
7307;DHT22;3694;48.732;9.248;2022-07-29T01:37:33;16.90;99.90
7307;DHT22;3694;48.732;9.248;2022-07-29T01:39:39;16.90;99.90
7307;DHT22;3694;48.732;9.248;2022-07-29T01:42:32;16.80;99.90
7307;DHT22;3694;48.732;9.248;2022-07-29T01:45:10;16.80;99.90
7307;DHT22;3694;48.732;9.248;2022-07-29T01:47:43;16.80;99.90
7307;DHT22;3694;48.732;9.248;2022-07-29T01:50:14;16.70;99.90
7307;DHT22;3694;48.732;9.248;2022-07-29T01:52:55;16.60;99.90
7307;DHT22;3694;48.732;9.248;2022-07-29T01:55:25;16.50;99.90
7307;DHT22;3694;48.732;9.248;2022-07-29T01:57:52;16.60;99.90
7307;DHT22;3694;48.732;9.248;2022-07-29T02:00:20;16.60;99.90
7307;DHT22;3694;48.732;9.248;2022-07-29T02:02:47;16.50;99.90
7307;DHT22;3694;48.732;9.248;2022-07-29T02:05:15;16.60;99.90
7307;DHT22;3694;48.732;9.248;2022-07-29T02:07:43;16.60;99.90
7307;DHT22;3694;48.732;9.248;2022-07-29T02:10:10;16.80;99.90
7307;DHT22;3694;48.732;9.248;2022-07-29T02:12:37;16.70;99.90
7307;DHT22;3694;48.732;9.248;2022-07-29T02:15:06;16.70;99.90
7307;DHT22;3694;48.732;9.248;2022-07-29T02:17:41;16.60;99.90
7307;DHT22;3694;48.732;9.248;2022-07-29T02:20:08;16.60;99.90
7307;DHT22;3694;48.732;9.248;2022-07-29T02:22:37;16.50;99.90
7307;DHT22;3694;48.732;9.248;2022-07-29T02:25:03;16.40;99.90
7307;DHT22;3694;48.732;9.248;2022-07-29T02:27:30;16.30;99.90
7307;DHT22;3694;48.732;9.248;2022-07-29T02:30:01;16.20;99.90
7307;DHT22;3694;48.732;9.248;2022-07-29T02:32:28;16.10;99.90
7307;DHT22;3694;48.732;9.248;2022-07-29T02:34:55;16.10;99.90
7307;DHT22;3694;48.732;9.248;2022-07-29T02:37:22;16.00;99.90
7307;DHT22;3694;48.732;9.248;2022-07-29T02:39:48;15.90;99.90
7307;DHT22;3694;48.732;9.248;2022-07-29T02:42:17;15.80;99.90
7307;DHT22;3694;48.732;9.248;2022-07-29T02:44:43;15.80;99.90
7307;DHT22;3694;48.732;9.248;2022-07-29T02:49:42;15.70;99.90
7307;DHT22;3694;48.732;9.248;2022-07-29T02:52:18;15.60;99.90
7307;DHT22;3694;48.732;9.248;2022-07-29T02:55:01;15.60;99.90
7307;DHT22;3694;48.732;9.248;2022-07-29T02:57:36;15.60;99.90
7307;DHT22;3694;48.732;9.248;2022-07-29T03:00:07;15.60;99.90
7307;DHT22;3694;48.732;9.248;2022-07-29T03:02:36;15.70;99.90
7307;DHT22;3694;48.732;9.248;2022-07-29T03:05:04;15.80;99.90
7307;DHT22;3694;48.732;9.248;2022-07-29T03:07:30;15.80;99.90
7307;DHT22;3694;48.732;9.248;2022-07-29T03:09:56;15.90;99.90
7307;DHT22;3694;48.732;9.248;2022-07-29T03:12:23;16.00;99.90
7307;DHT22;3694;48.732;9.248;2022-07-29T03:14:48;16.10;99.90
7307;DHT22;3694;48.732;9.248;2022-07-29T03:17:15;16.10;99.90
7307;DHT22;3694;48.732;9.248;2022-07-29T03:19:42;16.10;99.90
7307;DHT22;3694;48.732;9.248;2022-07-29T03:22:08;16.20;99.90
7307;DHT22;3694;48.732;9.248;2022-07-29T03:24:35;16.20;99.90
7307;DHT22;3694;48.732;9.248;2022-07-29T03:27:02;16.20;99.90
7307;DHT22;3694;48.732;9.248;2022-07-29T03:29:27;16.20;99.90
7307;DHT22;3694;48.732;9.248;2022-07-29T03:31:53;16.30;99.90
7307;DHT22;3694;48.732;9.248;2022-07-29T03:34:19;16.40;99.90
7307;DHT22;3694;48.732;9.248;2022-07-29T03:36:45;16.30;99.90
7307;DHT22;3694;48.732;9.248;2022-07-29T03:39:12;16.40;99.90
7307;DHT22;3694;48.732;9.248;2022-07-29T03:41:40;16.40;99.90
7307;DHT22;3694;48.732;9.248;2022-07-29T03:44:07;16.40;99.90
7307;DHT22;3694;48.732;9.248;2022-07-29T03:46:35;16.40;99.90
7307;DHT22;3694;48.732;9.248;2022-07-29T03:49:03;16.40;99.90
7307;DHT22;3694;48.732;9.248;2022-07-29T03:51:30;16.30;99.90
7307;DHT22;3694;48.732;9.248;2022-07-29T03:53:55;16.30;99.90
7307;DHT22;3694;48.732;9.248;2022-07-29T03:56:22;16.30;99.90
7307;DHT22;3694;48.732;9.248;2022-07-29T03:58:52;16.30;99.90
7307;DHT22;3694;48.732;9.248;2022-07-29T04:01:19;16.50;99.90
7307;DHT22;3694;48.732;9.248;2022-07-29T04:03:45;16.40;99.90
7307;DHT22;3694;48.732;9.248;2022-07-29T04:06:11;16.40;99.90
7307;DHT22;3694;48.732;9.248;2022-07-29T04:08:37;16.50;99.90
7307;DHT22;3694;48.732;9.248;2022-07-29T04:11:03;16.50;99.90
7307;DHT22;3694;48.732;9.248;2022-07-29T04:13:30;16.50;99.90
7307;DHT22;3694;48.732;9.248;2022-07-29T04:15:55;16.50;99.90
7307;DHT22;3694;48.732;9.248;2022-07-29T04:18:21;16.50;99.90
7307;DHT22;3694;48.732;9.248;2022-07-29T04:20:47;16.60;99.90
7307;DHT22;3694;48.732;9.248;2022-07-29T04:23:12;16.60;99.90
7307;DHT22;3694;48.732;9.248;2022-07-29T04:25:41;16.60;99.90
7307;DHT22;3694;48.732;9.248;2022-07-29T04:28:07;16.70;99.90
7307;DHT22;3694;48.732;9.248;2022-07-29T04:30:34;16.70;99.90
7307;DHT22;3694;48.732;9.248;2022-07-29T04:33:01;16.70;99.90
7307;DHT22;3694;48.732;9.248;2022-07-29T04:35:28;16.90;99.90
7307;DHT22;3694;48.732;9.248;2022-07-29T04:37:54;16.90;99.90
7307;DHT22;3694;48.732;9.248;2022-07-29T04:40:19;16.80;99.90
7307;DHT22;3694;48.732;9.248;2022-07-29T04:42:46;16.90;99.90
7307;DHT22;3694;48.732;9.248;2022-07-29T04:45:11;16.90;99.90
7307;DHT22;3694;48.732;9.248;2022-07-29T04:47:37;16.90;99.90
7307;DHT22;3694;48.732;9.248;2022-07-29T04:50:03;17.00;99.90
7307;DHT22;3694;48.732;9.248;2022-07-29T04:52:29;17.10;99.90
7307;DHT22;3694;48.732;9.248;2022-07-29T04:54:54;17.10;99.90
7307;DHT22;3694;48.732;9.248;2022-07-29T04:57:20;17.10;99.90
7307;DHT22;3694;48.732;9.248;2022-07-29T04:59:45;17.20;99.90
7307;DHT22;3694;48.732;9.248;2022-07-29T05:02:11;17.20;99.90
7307;DHT22;3694;48.732;9.248;2022-07-29T05:04:36;17.30;99.90
7307;DHT22;3694;48.732;9.248;2022-07-29T05:07:02;17.40;99.90
7307;DHT22;3694;48.732;9.248;2022-07-29T05:09:27;17.50;99.90
7307;DHT22;3694;48.732;9.248;2022-07-29T05:11:53;17.60;99.90
7307;DHT22;3694;48.732;9.248;2022-07-29T05:14:18;17.70;99.90
7307;DHT22;3694;48.732;9.248;2022-07-29T05:16:44;18.00;99.90
7307;DHT22;3694;48.732;9.248;2022-07-29T05:19:09;18.20;99.90
7307;DHT22;3694;48.732;9.248;2022-07-29T05:21:35;18.40;99.90
7307;DHT22;3694;48.732;9.248;2022-07-29T05:24:01;18.60;99.90
7307;DHT22;3694;48.732;9.248;2022-07-29T05:26:26;18.90;99.90
7307;DHT22;3694;48.732;9.248;2022-07-29T05:28:52;19.20;99.90
7307;DHT22;3694;48.732;9.248;2022-07-29T05:31:19;19.80;99.90
7307;DHT22;3694;48.732;9.248;2022-07-29T05:33:44;20.50;99.90
7307;DHT22;3694;48.732;9.248;2022-07-29T05:36:10;21.10;99.90
7307;DHT22;3694;48.732;9.248;2022-07-29T05:38:37;21.70;99.90
7307;DHT22;3694;48.732;9.248;2022-07-29T05:41:03;22.10;99.90
7307;DHT22;3694;48.732;9.248;2022-07-29T05:43:29;22.50;99.90
7307;DHT22;3694;48.732;9.248;2022-07-29T05:45:55;22.80;99.30
7307;DHT22;3694;48.732;9.248;2022-07-29T05:48:21;23.00;98.40
7307;DHT22;3694;48.732;9.248;2022-07-29T05:50:46;23.20;98.40
7307;DHT22;3694;48.732;9.248;2022-07-29T05:53:12;23.90;98.00
7307;DHT22;3694;48.732;9.248;2022-07-29T05:55:37;24.60;96.40
7307;DHT22;3694;48.732;9.248;2022-07-29T05:58:03;24.80;95.30
7307;DHT22;3694;48.732;9.248;2022-07-29T06:00:28;24.50;94.20
7307;DHT22;3694;48.732;9.248;2022-07-29T06:02:55;24.30;94.00
7307;DHT22;3694;48.732;9.248;2022-07-29T06:05:20;24.60;93.90
7307;DHT22;3694;48.732;9.248;2022-07-29T06:07:46;25.20;92.80
7307;DHT22;3694;48.732;9.248;2022-07-29T06:10:11;25.90;91.80
7307;DHT22;3694;48.732;9.248;2022-07-29T06:12:37;26.30;90.30
7307;DHT22;3694;48.732;9.248;2022-07-29T06:15:03;26.40;89.70
7307;DHT22;3694;48.732;9.248;2022-07-29T06:17:28;26.40;90.30
7307;DHT22;3694;48.732;9.248;2022-07-29T06:19:54;27.00;88.80
7307;DHT22;3694;48.732;9.248;2022-07-29T06:22:19;26.60;87.20
7307;DHT22;3694;48.732;9.248;2022-07-29T06:24:45;27.00;87.80
7307;DHT22;3694;48.732;9.248;2022-07-29T06:27:11;27.50;85.80
7307;DHT22;3694;48.732;9.248;2022-07-29T06:29:37;28.20;82.10
7307;DHT22;3694;48.732;9.248;2022-07-29T06:32:03;28.60;80.90
7307;DHT22;3694;48.732;9.248;2022-07-29T06:34:28;29.10;79.20
7307;DHT22;3694;48.732;9.248;2022-07-29T06:36:54;29.80;78.70
7307;DHT22;3694;48.732;9.248;2022-07-29T06:39:20;30.30;73.80
7307;DHT22;3694;48.732;9.248;2022-07-29T06:41:49;30.50;71.70
7307;DHT22;3694;48.732;9.248;2022-07-29T06:44:16;30.80;69.90
7307;DHT22;3694;48.732;9.248;2022-07-29T06:46:43;31.00;68.00
7307;DHT22;3694;48.732;9.248;2022-07-29T06:49:09;31.40;68.20
7307;DHT22;3694;48.732;9.248;2022-07-29T06:51:35;31.80;67.00
7307;DHT22;3694;48.732;9.248;2022-07-29T06:54:00;32.10;66.50
7307;DHT22;3694;48.732;9.248;2022-07-29T06:56:26;32.40;64.00
7307;DHT22;3694;48.732;9.248;2022-07-29T06:58:52;32.60;63.80
7307;DHT22;3694;48.732;9.248;2022-07-29T07:01:18;32.50;63.90
7307;DHT22;3694;48.732;9.248;2022-07-29T07:03:45;31.90;62.20
7307;DHT22;3694;48.732;9.248;2022-07-29T07:06:10;31.00;63.20
7307;DHT22;3694;48.732;9.248;2022-07-29T07:08:36;29.90;64.60
7307;DHT22;3694;48.732;9.248;2022-07-29T07:11:01;29.10;65.40
7307;DHT22;3694;48.732;9.248;2022-07-29T07:13:27;28.70;67.50
7307;DHT22;3694;48.732;9.248;2022-07-29T07:15:56;28.70;68.30
7307;DHT22;3694;48.732;9.248;2022-07-29T07:18:22;28.30;68.30
7307;DHT22;3694;48.732;9.248;2022-07-29T07:20:47;28.30;70.80
7307;DHT22;3694;48.732;9.248;2022-07-29T07:23:13;28.50;68.90
7307;DHT22;3694;48.732;9.248;2022-07-29T07:25:38;28.40;68.40
7307;DHT22;3694;48.732;9.248;2022-07-29T07:28:04;28.60;68.10
7307;DHT22;3694;48.732;9.248;2022-07-29T07:30:29;28.50;68.60
7307;DHT22;3694;48.732;9.248;2022-07-29T07:32:56;28.70;68.00
7307;DHT22;3694;48.732;9.248;2022-07-29T07:35:21;29.10;67.30
7307;DHT22;3694;48.732;9.248;2022-07-29T07:37:47;29.30;67.30
7307;DHT22;3694;48.732;9.248;2022-07-29T07:40:13;29.10;65.50
7307;DHT22;3694;48.732;9.248;2022-07-29T07:42:39;28.80;66.80
7307;DHT22;3694;48.732;9.248;2022-07-29T07:45:06;28.10;67.00
7307;DHT22;3694;48.732;9.248;2022-07-29T07:47:34;27.80;68.30
7307;DHT22;3694;48.732;9.248;2022-07-29T07:50:00;28.50;69.60
7307;DHT22;3694;48.732;9.248;2022-07-29T07:52:26;29.40;67.00
7307;DHT22;3694;48.732;9.248;2022-07-29T07:54:51;30.20;67.50
7307;DHT22;3694;48.732;9.248;2022-07-29T07:57:18;31.10;65.10
7307;DHT22;3694;48.732;9.248;2022-07-29T07:59:43;30.90;64.20
7307;DHT22;3694;48.732;9.248;2022-07-29T08:02:09;30.70;62.50
7307;DHT22;3694;48.732;9.248;2022-07-29T08:04:35;30.80;65.50
7307;DHT22;3694;48.732;9.248;2022-07-29T08:07:01;30.90;63.70
7307;DHT22;3694;48.732;9.248;2022-07-29T08:09:28;30.50;62.90
7307;DHT22;3694;48.732;9.248;2022-07-29T08:11:54;31.00;62.60
7307;DHT22;3694;48.732;9.248;2022-07-29T08:14:20;31.30;63.30
7307;DHT22;3694;48.732;9.248;2022-07-29T08:16:45;31.70;60.70
7307;DHT22;3694;48.732;9.248;2022-07-29T08:19:11;31.80;61.40
7307;DHT22;3694;48.732;9.248;2022-07-29T08:21:37;32.20;59.60
7307;DHT22;3694;48.732;9.248;2022-07-29T08:24:03;32.00;60.40
7307;DHT22;3694;48.732;9.248;2022-07-29T08:26:47;31.80;60.10
7307;DHT22;3694;48.732;9.248;2022-07-29T08:29:13;31.20;60.50
7307;DHT22;3694;48.732;9.248;2022-07-29T08:31:39;31.20;61.30
7307;DHT22;3694;48.732;9.248;2022-07-29T08:34:05;31.40;61.60
7307;DHT22;3694;48.732;9.248;2022-07-29T08:36:32;31.80;60.10
7307;DHT22;3694;48.732;9.248;2022-07-29T08:38:59;31.90;60.80
7307;DHT22;3694;48.732;9.248;2022-07-29T08:41:25;31.90;61.70
7307;DHT22;3694;48.732;9.248;2022-07-29T08:43:51;32.20;58.80
7307;DHT22;3694;48.732;9.248;2022-07-29T08:46:18;32.40;59.70
7307;DHT22;3694;48.732;9.248;2022-07-29T08:48:44;32.50;59.20
7307;DHT22;3694;48.732;9.248;2022-07-29T08:51:14;32.70;58.90
7307;DHT22;3694;48.732;9.248;2022-07-29T08:53:42;33.00;59.70
7307;DHT22;3694;48.732;9.248;2022-07-29T08:56:11;32.20;59.20
7307;DHT22;3694;48.732;9.248;2022-07-29T08:58:38;31.80;60.90
7307;DHT22;3694;48.732;9.248;2022-07-29T09:01:04;31.40;60.10
7307;DHT22;3694;48.732;9.248;2022-07-29T09:03:31;31.30;62.60
7307;DHT22;3694;48.732;9.248;2022-07-29T09:05:58;31.00;63.30
7307;DHT22;3694;48.732;9.248;2022-07-29T09:08:24;30.70;61.70
7307;DHT22;3694;48.732;9.248;2022-07-29T09:10:50;30.50;62.90
7307;DHT22;3694;48.732;9.248;2022-07-29T09:13:17;30.40;64.40
7307;DHT22;3694;48.732;9.248;2022-07-29T09:15:43;30.40;63.70
7307;DHT22;3694;48.732;9.248;2022-07-29T09:18:09;30.50;63.30
7307;DHT22;3694;48.732;9.248;2022-07-29T09:20:35;30.60;61.60
7307;DHT22;3694;48.732;9.248;2022-07-29T09:23:38;30.80;62.30
7307;DHT22;3694;48.732;9.248;2022-07-29T09:26:06;30.60;62.50
7307;DHT22;3694;48.732;9.248;2022-07-29T09:28:32;30.20;62.70
7307;DHT22;3694;48.732;9.248;2022-07-29T09:30:58;30.10;66.00
7307;DHT22;3694;48.732;9.248;2022-07-29T09:33:31;30.30;63.80
7307;DHT22;3694;48.732;9.248;2022-07-29T09:36:03;30.60;63.40
7307;DHT22;3694;48.732;9.248;2022-07-29T09:38:29;30.10;62.90
7307;DHT22;3694;48.732;9.248;2022-07-29T09:41:00;30.10;64.50
7307;DHT22;3694;48.732;9.248;2022-07-29T09:43:26;30.40;63.50
7307;DHT22;3694;48.732;9.248;2022-07-29T09:45:51;30.20;65.30
7307;DHT22;3694;48.732;9.248;2022-07-29T09:48:20;30.10;64.40
7307;DHT22;3694;48.732;9.248;2022-07-29T09:50:46;30.20;63.60
7307;DHT22;3694;48.732;9.248;2022-07-29T09:53:37;30.00;63.90
7307;DHT22;3694;48.732;9.248;2022-07-29T09:56:04;30.10;62.90
7307;DHT22;3694;48.732;9.248;2022-07-29T09:58:30;30.20;63.60
7307;DHT22;3694;48.732;9.248;2022-07-29T10:00:56;30.20;64.10
7307;DHT22;3694;48.732;9.248;2022-07-29T10:03:22;30.00;60.90
7307;DHT22;3694;48.732;9.248;2022-07-29T10:06:08;30.40;62.50
7307;DHT22;3694;48.732;9.248;2022-07-29T10:08:34;30.30;62.60
7307;DHT22;3694;48.732;9.248;2022-07-29T10:11:29;30.50;61.20
7307;DHT22;3694;48.732;9.248;2022-07-29T10:13:55;30.80;61.80
7307;DHT22;3694;48.732;9.248;2022-07-29T10:16:20;31.40;61.20
7307;DHT22;3694;48.732;9.248;2022-07-29T10:18:46;31.80;61.20
7307;DHT22;3694;48.732;9.248;2022-07-29T10:21:12;31.70;62.10
7307;DHT22;3694;48.732;9.248;2022-07-29T10:23:38;31.40;61.90
7307;DHT22;3694;48.732;9.248;2022-07-29T10:26:05;31.10;60.40
7307;DHT22;3694;48.732;9.248;2022-07-29T10:28:31;30.90;61.40
7307;DHT22;3694;48.732;9.248;2022-07-29T10:31:04;30.70;59.80
7307;DHT22;3694;48.732;9.248;2022-07-29T10:34:22;31.10;59.70
7307;DHT22;3694;48.732;9.248;2022-07-29T10:39:27;30.40;61.40
7307;DHT22;3694;48.732;9.248;2022-07-29T10:42:17;29.90;61.50
7307;DHT22;3694;48.732;9.248;2022-07-29T10:44:44;29.40;62.20
7307;DHT22;3694;48.732;9.248;2022-07-29T10:47:24;28.90;62.80
7307;DHT22;3694;48.732;9.248;2022-07-29T10:50:00;28.40;62.90
7307;DHT22;3694;48.732;9.248;2022-07-29T10:52:54;27.70;64.60
7307;DHT22;3694;48.732;9.248;2022-07-29T10:55:39;27.40;64.10
7307;DHT22;3694;48.732;9.248;2022-07-29T10:58:21;27.00;64.90
7307;DHT22;3694;48.732;9.248;2022-07-29T11:00:53;26.80;65.80
7307;DHT22;3694;48.732;9.248;2022-07-29T11:03:48;26.60;66.30
7307;DHT22;3694;48.732;9.248;2022-07-29T11:06:17;26.20;66.60
7307;DHT22;3694;48.732;9.248;2022-07-29T11:08:42;25.90;68.00
7307;DHT22;3694;48.732;9.248;2022-07-29T11:11:30;25.50;67.10
7307;DHT22;3694;48.732;9.248;2022-07-29T11:13:56;25.00;67.50
7307;DHT22;3694;48.732;9.248;2022-07-29T11:16:22;24.20;67.10
7307;DHT22;3694;48.732;9.248;2022-07-29T11:21:36;22.00;70.60
7307;DHT22;3694;48.732;9.248;2022-07-29T11:24:20;21.00;84.70
7307;DHT22;3694;48.732;9.248;2022-07-29T11:27:12;18.70;97.10
7307;DHT22;3694;48.732;9.248;2022-07-29T11:29:53;16.00;99.90
7307;DHT22;3694;48.732;9.248;2022-07-29T11:32:19;14.50;99.90
7307;DHT22;3694;48.732;9.248;2022-07-29T11:34:47;14.20;99.90
7307;DHT22;3694;48.732;9.248;2022-07-29T11:37:13;14.20;99.90
7307;DHT22;3694;48.732;9.248;2022-07-29T11:39:40;14.30;99.90
7307;DHT22;3694;48.732;9.248;2022-07-29T11:45:05;14.80;99.90
7307;DHT22;3694;48.732;9.248;2022-07-29T11:47:32;15.20;99.90
7307;DHT22;3694;48.732;9.248;2022-07-29T11:50:00;15.40;99.90
7307;DHT22;3694;48.732;9.248;2022-07-29T11:52:37;15.60;99.90
7307;DHT22;3694;48.732;9.248;2022-07-29T11:55:09;15.90;99.90
7307;DHT22;3694;48.732;9.248;2022-07-29T11:57:36;16.00;99.90
7307;DHT22;3694;48.732;9.248;2022-07-29T12:00:06;16.20;99.90
7307;DHT22;3694;48.732;9.248;2022-07-29T12:02:43;16.50;99.90
7307;DHT22;3694;48.732;9.248;2022-07-29T12:05:10;16.60;99.90
7307;DHT22;3694;48.732;9.248;2022-07-29T12:07:39;16.70;99.90
7307;DHT22;3694;48.732;9.248;2022-07-29T12:10:06;16.80;99.90
7307;DHT22;3694;48.732;9.248;2022-07-29T12:12:32;16.90;99.90
7307;DHT22;3694;48.732;9.248;2022-07-29T12:15:10;16.90;99.90
7307;DHT22;3694;48.732;9.248;2022-07-29T12:17:36;16.90;99.90
7307;DHT22;3694;48.732;9.248;2022-07-29T12:20:03;16.90;99.90
7307;DHT22;3694;48.732;9.248;2022-07-29T12:22:37;17.10;99.90
7307;DHT22;3694;48.732;9.248;2022-07-29T12:25:05;17.20;99.90
7307;DHT22;3694;48.732;9.248;2022-07-29T12:27:32;17.40;99.90
7307;DHT22;3694;48.732;9.248;2022-07-29T12:29:59;17.50;99.90
7307;DHT22;3694;48.732;9.248;2022-07-29T12:32:36;17.80;99.90
7307;DHT22;3694;48.732;9.248;2022-07-29T12:35:08;18.00;99.90
7307;DHT22;3694;48.732;9.248;2022-07-29T12:37:35;18.10;99.90
7307;DHT22;3694;48.732;9.248;2022-07-29T12:40:03;18.30;99.90
7307;DHT22;3694;48.732;9.248;2022-07-29T12:42:29;18.50;99.90
7307;DHT22;3694;48.732;9.248;2022-07-29T12:44:54;18.60;99.90
7307;DHT22;3694;48.732;9.248;2022-07-29T12:47:21;18.70;99.90
7307;DHT22;3694;48.732;9.248;2022-07-29T12:49:47;18.70;99.90
7307;DHT22;3694;48.732;9.248;2022-07-29T12:52:31;18.70;99.90
7307;DHT22;3694;48.732;9.248;2022-07-29T12:54:57;18.70;99.90
7307;DHT22;3694;48.732;9.248;2022-07-29T12:57:22;18.70;99.90
7307;DHT22;3694;48.732;9.248;2022-07-29T13:00:06;18.60;99.90
7307;DHT22;3694;48.732;9.248;2022-07-29T13:02:37;18.80;99.90
7307;DHT22;3694;48.732;9.248;2022-07-29T13:05:04;19.10;99.90
7307;DHT22;3694;48.732;9.248;2022-07-29T13:07:32;19.30;99.90
7307;DHT22;3694;48.732;9.248;2022-07-29T13:12:36;19.50;99.90
7307;DHT22;3694;48.732;9.248;2022-07-29T13:15:15;19.50;99.90
7307;DHT22;3694;48.732;9.248;2022-07-29T13:17:42;19.50;99.90
7307;DHT22;3694;48.732;9.248;2022-07-29T13:20:10;19.50;99.90
7307;DHT22;3694;48.732;9.248;2022-07-29T13:22:41;19.50;99.90
7307;DHT22;3694;48.732;9.248;2022-07-29T13:25:08;19.50;99.90
7307;DHT22;3694;48.732;9.248;2022-07-29T13:27:36;19.40;99.90
7307;DHT22;3694;48.732;9.248;2022-07-29T13:30:04;19.10;99.90
7307;DHT22;3694;48.732;9.248;2022-07-29T13:32:31;18.90;99.90
7307;DHT22;3694;48.732;9.248;2022-07-29T13:34:59;18.80;99.90
7307;DHT22;3694;48.732;9.248;2022-07-29T13:37:26;18.70;99.90
7307;DHT22;3694;48.732;9.248;2022-07-29T13:39:51;18.80;99.90
7307;DHT22;3694;48.732;9.248;2022-07-29T13:42:19;18.80;99.90
7307;DHT22;3694;48.732;9.248;2022-07-29T13:44:44;18.90;99.90
7307;DHT22;3694;48.732;9.248;2022-07-29T13:47:10;19.00;99.90
7307;DHT22;3694;48.732;9.248;2022-07-29T13:49:36;19.20;99.90
7307;DHT22;3694;48.732;9.248;2022-07-29T13:52:02;19.30;99.90
7307;DHT22;3694;48.732;9.248;2022-07-29T13:54:28;19.70;99.90
7307;DHT22;3694;48.732;9.248;2022-07-29T13:56:54;19.90;99.90
7307;DHT22;3694;48.732;9.248;2022-07-29T13:59:19;20.10;99.90
7307;DHT22;3694;48.732;9.248;2022-07-29T14:01:45;20.30;99.90
7307;DHT22;3694;48.732;9.248;2022-07-29T14:04:10;20.50;99.90
7307;DHT22;3694;48.732;9.248;2022-07-29T14:06:36;20.70;99.90
7307;DHT22;3694;48.732;9.248;2022-07-29T14:09:02;21.30;99.90
7307;DHT22;3694;48.732;9.248;2022-07-29T14:11:31;21.70;99.90
7307;DHT22;3694;48.732;9.248;2022-07-29T14:13:57;22.00;99.90
7307;DHT22;3694;48.732;9.248;2022-07-29T14:16:23;22.20;99.90
7307;DHT22;3694;48.732;9.248;2022-07-29T14:18:48;22.30;99.90
7307;DHT22;3694;48.732;9.248;2022-07-29T14:21:14;22.60;99.90
7307;DHT22;3694;48.732;9.248;2022-07-29T14:23:39;22.60;99.90
7307;DHT22;3694;48.732;9.248;2022-07-29T14:26:06;22.50;99.90
7307;DHT22;3694;48.732;9.248;2022-07-29T14:28:31;22.60;99.90
7307;DHT22;3694;48.732;9.248;2022-07-29T14:30:57;22.80;99.90
7307;DHT22;3694;48.732;9.248;2022-07-29T14:33:22;22.80;99.90
7307;DHT22;3694;48.732;9.248;2022-07-29T14:35:48;23.00;99.90
7307;DHT22;3694;48.732;9.248;2022-07-29T14:38:14;23.00;99.90
7307;DHT22;3694;48.732;9.248;2022-07-29T14:40:40;23.00;99.90
7307;DHT22;3694;48.732;9.248;2022-07-29T14:43:05;23.00;99.90
7307;DHT22;3694;48.732;9.248;2022-07-29T14:45:31;23.00;99.90
7307;DHT22;3694;48.732;9.248;2022-07-29T14:47:56;22.90;99.90
7307;DHT22;3694;48.732;9.248;2022-07-29T14:50:22;22.90;99.90
7307;DHT22;3694;48.732;9.248;2022-07-29T14:52:48;22.90;99.90
7307;DHT22;3694;48.732;9.248;2022-07-29T14:55:13;23.00;99.90
7307;DHT22;3694;48.732;9.248;2022-07-29T14:57:39;23.00;99.90
7307;DHT22;3694;48.732;9.248;2022-07-29T15:00:06;23.00;99.90
7307;DHT22;3694;48.732;9.248;2022-07-29T15:02:32;23.00;99.90
7307;DHT22;3694;48.732;9.248;2022-07-29T15:04:58;23.00;99.90
7307;DHT22;3694;48.732;9.248;2022-07-29T15:07:24;23.00;99.90
7307;DHT22;3694;48.732;9.248;2022-07-29T15:09:49;22.90;99.90
7307;DHT22;3694;48.732;9.248;2022-07-29T15:12:15;23.00;99.90
7307;DHT22;3694;48.732;9.248;2022-07-29T15:14:40;23.00;99.90
7307;DHT22;3694;48.732;9.248;2022-07-29T15:17:06;23.10;99.90
7307;DHT22;3694;48.732;9.248;2022-07-29T15:19:32;23.20;99.90
7307;DHT22;3694;48.732;9.248;2022-07-29T15:21:58;23.30;99.90
7307;DHT22;3694;48.732;9.248;2022-07-29T15:24:23;23.40;99.90
7307;DHT22;3694;48.732;9.248;2022-07-29T15:26:49;23.10;99.90
7307;DHT22;3694;48.732;9.248;2022-07-29T15:29:14;23.20;99.90
7307;DHT22;3694;48.732;9.248;2022-07-29T15:31:40;23.30;99.90
7307;DHT22;3694;48.732;9.248;2022-07-29T15:34:06;23.00;99.90
7307;DHT22;3694;48.732;9.248;2022-07-29T15:36:32;23.00;99.90
7307;DHT22;3694;48.732;9.248;2022-07-29T15:38:57;22.90;99.90
7307;DHT22;3694;48.732;9.248;2022-07-29T15:41:23;22.70;99.90
7307;DHT22;3694;48.732;9.248;2022-07-29T15:43:49;22.80;99.90
7307;DHT22;3694;48.732;9.248;2022-07-29T15:46:17;22.80;99.90
7307;DHT22;3694;48.732;9.248;2022-07-29T15:49:03;22.70;99.90
7307;DHT22;3694;48.732;9.248;2022-07-29T15:51:30;22.70;99.90
7307;DHT22;3694;48.732;9.248;2022-07-29T15:53:55;22.70;99.90
7307;DHT22;3694;48.732;9.248;2022-07-29T15:56:22;22.70;99.90
7307;DHT22;3694;48.732;9.248;2022-07-29T15:58:47;22.80;99.90
7307;DHT22;3694;48.732;9.248;2022-07-29T16:01:13;22.90;99.90
7307;DHT22;3694;48.732;9.248;2022-07-29T16:03:39;23.00;99.90
7307;DHT22;3694;48.732;9.248;2022-07-29T16:06:04;23.20;99.90
7307;DHT22;3694;48.732;9.248;2022-07-29T16:08:30;23.20;99.90
7307;DHT22;3694;48.732;9.248;2022-07-29T16:10:56;23.20;99.90
7307;DHT22;3694;48.732;9.248;2022-07-29T16:13:21;23.20;99.90
7307;DHT22;3694;48.732;9.248;2022-07-29T16:15:47;23.10;99.90
7307;DHT22;3694;48.732;9.248;2022-07-29T16:18:12;23.20;99.90
7307;DHT22;3694;48.732;9.248;2022-07-29T16:20:39;23.10;99.90
7307;DHT22;3694;48.732;9.248;2022-07-29T16:23:05;23.00;99.90
7307;DHT22;3694;48.732;9.248;2022-07-29T16:25:34;22.90;99.90
7307;DHT22;3694;48.732;9.248;2022-07-29T16:27:59;22.80;99.90